WGN618 KPHX-KDEN
Flight info
| Callsign | WGN618 |
|---|---|
| Flight time | 1h 6m |
| Altitude | 35000 |
| Route | MRBIL1 JARPA CRUDD TBARR4 |
| Aircraft | MD1F/H-SDE1E2E3FGHIJ2J3J4J5M1RWXY/LB1D1 |
Departure
| Time | 2026-05-05 23:41 |
|---|---|
| Airport | Phoenix Sky Harbor International Airport (KPHX) |
Arrival
| Time | 2026-05-06 00:48 |
|---|---|
| Airport | Denver International Airport (KDEN) |
| Time | Latitude | Longitude | Altitude | Speed | Heading |
|---|---|---|---|---|---|
| 2026-05-05 23:25 | 33.42508 | -112.01675 | 1126 ft | 0 kts | 90° |
| 2026-05-05 23:32 | 33.42508 | -112.01674 | 1126 ft | 0 kts | 90° |
| 2026-05-05 23:32 | 33.42508 | -112.01675 | 1126 ft | 1 kts | 90° |
| 2026-05-05 23:32 | 33.42500 | -112.01711 | 1126 ft | 3 kts | 35° |
| 2026-05-05 23:32 | 33.42493 | -112.01714 | 1126 ft | 1 kts | 9° |
| 2026-05-05 23:33 | 33.42546 | -112.01717 | 1126 ft | 13 kts | 349° |
| 2026-05-05 23:33 | 33.42656 | -112.01737 | 1126 ft | 10 kts | 355° |
| 2026-05-05 23:33 | 33.42661 | -112.01737 | 1126 ft | 0 kts | 354° |
| 2026-05-05 23:33 | 33.42662 | -112.01738 | 1126 ft | 0 kts | 354° |
| 2026-05-05 23:34 | 33.42685 | -112.01739 | 1126 ft | 8 kts | 358° |
| 2026-05-05 23:34 | 33.42748 | -112.01716 | 1127 ft | 10 kts | 50° |
| 2026-05-05 23:34 | 33.42771 | -112.01638 | 1128 ft | 10 kts | 83° |
| 2026-05-05 23:34 | 33.42775 | -112.01548 | 1128 ft | 11 kts | 89° |
| 2026-05-05 23:35 | 33.42774 | -112.01450 | 1128 ft | 12 kts | 90° |
| 2026-05-05 23:35 | 33.42774 | -112.01344 | 1128 ft | 13 kts | 88° |
| 2026-05-05 23:35 | 33.42775 | -112.01228 | 1128 ft | 14 kts | 90° |
| 2026-05-05 23:35 | 33.42774 | -112.01109 | 1129 ft | 14 kts | 90° |
| 2026-05-05 23:36 | 33.42774 | -112.00980 | 1129 ft | 15 kts | 90° |
| 2026-05-05 23:36 | 33.42774 | -112.00843 | 1129 ft | 16 kts | 90° |
| 2026-05-05 23:36 | 33.42773 | -112.00697 | 1129 ft | 17 kts | 90° |
| 2026-05-05 23:36 | 33.42797 | -112.00554 | 1129 ft | 18 kts | 40° |
| 2026-05-05 23:37 | 33.42921 | -112.00500 | 1130 ft | 17 kts | 30° |
| 2026-05-05 23:37 | 33.42988 | -112.00380 | 1131 ft | 18 kts | 78° |
| 2026-05-05 23:37 | 33.42994 | -112.00221 | 1132 ft | 19 kts | 90° |
| 2026-05-05 23:37 | 33.42994 | -112.00054 | 1131 ft | 20 kts | 90° |
| 2026-05-05 23:38 | 33.42995 | -111.99883 | 1132 ft | 21 kts | 90° |
| 2026-05-05 23:38 | 33.42995 | -111.99704 | 1132 ft | 22 kts | 90° |
| 2026-05-05 23:38 | 33.42994 | -111.99521 | 1134 ft | 21 kts | 90° |
| 2026-05-05 23:38 | 33.42993 | -111.99440 | 1135 ft | 0 kts | 89° |
| 2026-05-05 23:39 | 33.42994 | -111.99433 | 1135 ft | 2 kts | 89° |
| 2026-05-05 23:39 | 33.42994 | -111.99426 | 1135 ft | 0 kts | 88° |
| 2026-05-05 23:40 | 33.42994 | -111.99422 | 1135 ft | 3 kts | 88° |
| 2026-05-05 23:40 | 33.43029 | -111.99352 | 1135 ft | 17 kts | 27° |
| 2026-05-05 23:40 | 33.43101 | -111.99515 | 1133 ft | 30 kts | 266° |
| 2026-05-05 23:41 | 33.43101 | -111.99954 | 1132 ft | 83 kts | 270° |
| 2026-05-05 23:41 | 33.43101 | -112.01054 | 1135 ft | 164 kts | 270° |
| 2026-05-05 23:41 | 33.43088 | -112.02560 | 1699 ft | 179 kts | 267° |
| 2026-05-05 23:41 | 33.43063 | -112.03999 | 2575 ft | 177 kts | 268° |
| 2026-05-05 23:42 | 33.43047 | -112.05477 | 3179 ft | 180 kts | 268° |
| 2026-05-05 23:42 | 33.43100 | -112.07000 | 3682 ft | 184 kts | 272° |
| 2026-05-05 23:42 | 33.43149 | -112.08526 | 4217 ft | 185 kts | 272° |
| 2026-05-05 23:42 | 33.43203 | -112.10147 | 4468 ft | 206 kts | 271° |
| 2026-05-05 23:43 | 33.43257 | -112.11943 | 4707 ft | 227 kts | 271° |
| 2026-05-05 23:43 | 33.43327 | -112.13896 | 5280 ft | 239 kts | 272° |
| 2026-05-05 23:43 | 33.43451 | -112.15874 | 5977 ft | 246 kts | 283° |
| 2026-05-05 23:43 | 33.44072 | -112.17776 | 6768 ft | 250 kts | 303° |
| 2026-05-05 23:44 | 33.45335 | -112.19287 | 7535 ft | 256 kts | 327° |
| 2026-05-05 23:44 | 33.47081 | -112.20000 | 8268 ft | 264 kts | 352° |
| 2026-05-05 23:44 | 33.48944 | -112.20048 | 8940 ft | 273 kts | 2° |
| 2026-05-05 23:44 | 33.50914 | -112.19849 | 9728 ft | 279 kts | 2° |
| 2026-05-05 23:45 | 33.52855 | -112.19563 | 10548 ft | 282 kts | 8° |
| 2026-05-05 23:45 | 33.54859 | -112.19063 | 10976 ft | 305 kts | 11° |
| 2026-05-05 23:45 | 33.57033 | -112.18430 | 11212 ft | 334 kts | 12° |
| 2026-05-05 23:45 | 33.59369 | -112.17635 | 11416 ft | 364 kts | 20° |
| 2026-05-05 23:46 | 33.61756 | -112.16255 | 11868 ft | 386 kts | 32° |
| 2026-05-05 23:46 | 33.63917 | -112.14256 | 12636 ft | 397 kts | 43° |
| 2026-05-05 23:46 | 33.65851 | -112.11834 | 13483 ft | 406 kts | 47° |
| 2026-05-05 23:46 | 33.67778 | -112.09262 | 14422 ft | 411 kts | 47° |
| 2026-05-05 23:47 | 33.69704 | -112.06718 | 15291 ft | 418 kts | 46° |
| 2026-05-05 23:47 | 33.71711 | -112.04133 | 16177 ft | 424 kts | 46° |
| 2026-05-05 23:47 | 33.73764 | -112.01525 | 17138 ft | 427 kts | 45° |
| 2026-05-05 23:47 | 33.75759 | -111.98827 | 17922 ft | 434 kts | 51° |
| 2026-05-05 23:48 | 33.77653 | -111.95850 | 18726 ft | 441 kts | 52° |
| 2026-05-05 23:48 | 33.79607 | -111.92703 | 19481 ft | 450 kts | 53° |
| 2026-05-05 23:48 | 33.81596 | -111.89497 | 20144 ft | 460 kts | 52° |
| 2026-05-05 23:48 | 33.83580 | -111.86352 | 20803 ft | 469 kts | 52° |
| 2026-05-05 23:49 | 33.85608 | -111.83160 | 21432 ft | 477 kts | 52° |
| 2026-05-05 23:49 | 33.87655 | -111.79915 | 21993 ft | 487 kts | 52° |
| 2026-05-05 23:49 | 33.89724 | -111.76636 | 22554 ft | 496 kts | 53° |
| 2026-05-05 23:49 | 33.91828 | -111.73316 | 23135 ft | 504 kts | 51° |
| 2026-05-05 23:50 | 33.93995 | -111.69891 | 23751 ft | 511 kts | 51° |
| 2026-05-05 23:50 | 33.96196 | -111.66387 | 24248 ft | 520 kts | 53° |
| 2026-05-05 23:50 | 33.98442 | -111.62899 | 24789 ft | 527 kts | 49° |
| 2026-05-05 23:50 | 34.01023 | -111.59650 | 25210 ft | 533 kts | 38° |
| 2026-05-05 23:51 | 34.04141 | -111.56797 | 25705 ft | 535 kts | 28° |
| 2026-05-05 23:51 | 34.07428 | -111.54331 | 26183 ft | 542 kts | 27° |
| 2026-05-05 23:51 | 34.10782 | -111.51884 | 26649 ft | 550 kts | 27° |
| 2026-05-05 23:51 | 34.14200 | -111.49320 | 27098 ft | 558 kts | 28° |
| 2026-05-05 23:52 | 34.17674 | -111.46645 | 27633 ft | 564 kts | 28° |
| 2026-05-05 23:52 | 34.21192 | -111.43903 | 28114 ft | 571 kts | 28° |
| 2026-05-05 23:52 | 34.24786 | -111.41102 | 28495 ft | 581 kts | 27° |
| 2026-05-05 23:52 | 34.28487 | -111.38219 | 29080 ft | 585 kts | 29° |
| 2026-05-05 23:53 | 34.32211 | -111.35318 | 29454 ft | 594 kts | 28° |
| 2026-05-05 23:53 | 34.36087 | -111.32314 | 30137 ft | 594 kts | 28° |
| 2026-05-05 23:53 | 34.39814 | -111.29436 | 30861 ft | 593 kts | 30° |
| 2026-05-05 23:53 | 34.43558 | -111.26529 | 31548 ft | 592 kts | 27° |
| 2026-05-05 23:54 | 34.47440 | -111.23532 | 32336 ft | 587 kts | 28° |
| 2026-05-05 23:54 | 34.51218 | -111.20617 | 32913 ft | 587 kts | 28° |
| 2026-05-05 23:54 | 34.55175 | -111.17560 | 33571 ft | 586 kts | 28° |
| 2026-05-05 23:54 | 34.59161 | -111.14476 | 34374 ft | 580 kts | 27° |
| 2026-05-05 23:55 | 34.63018 | -111.11312 | 34862 ft | 579 kts | 35° |
| 2026-05-05 23:55 | 34.66489 | -111.07583 | 34854 ft | 576 kts | 44° |
| 2026-05-05 23:55 | 34.72816 | -110.99415 | 34957 ft | 574 kts | 45° |
| 2026-05-05 23:56 | 34.76044 | -110.95362 | 34803 ft | 576 kts | 42° |
| 2026-05-05 23:56 | 34.79343 | -110.91335 | 34935 ft | 577 kts | 43° |
| 2026-05-05 23:56 | 34.86017 | -110.83176 | 34953 ft | 578 kts | 42° |
| 2026-05-05 23:57 | 34.92573 | -110.75162 | 34959 ft | 574 kts | 43° |
| 2026-05-05 23:57 | 34.99318 | -110.66940 | 34976 ft | 575 kts | 43° |
| 2026-05-05 23:58 | 35.05955 | -110.58840 | 34965 ft | 574 kts | 42° |
| 2026-05-05 23:58 | 35.12407 | -110.50993 | 34951 ft | 575 kts | 42° |
| 2026-05-05 23:59 | 35.18858 | -110.43121 | 34957 ft | 573 kts | 42° |
| 2026-05-05 23:59 | 35.25259 | -110.35344 | 34959 ft | 573 kts | 43° |
| 2026-05-06 00:00 | 35.31555 | -110.27455 | 34956 ft | 573 kts | 44° |
| 2026-05-06 00:00 | 35.37510 | -110.20002 | 34913 ft | 572 kts | 44° |
| 2026-05-06 00:01 | 35.40739 | -110.16019 | 35163 ft | 571 kts | 43° |
| 2026-05-06 00:01 | 35.43962 | -110.12013 | 34999 ft | 570 kts | 44° |
| 2026-05-06 00:01 | 35.50444 | -110.03914 | 34979 ft | 568 kts | 43° |
| 2026-05-06 00:02 | 35.56910 | -109.95879 | 34986 ft | 568 kts | 43° |
| 2026-05-06 00:02 | 35.63415 | -109.87799 | 34975 ft | 569 kts | 44° |
| 2026-05-06 00:03 | 35.69891 | -109.79810 | 34980 ft | 568 kts | 41° |
| 2026-05-06 00:03 | 35.76683 | -109.72263 | 34984 ft | 567 kts | 39° |
| 2026-05-06 00:04 | 35.83524 | -109.64756 | 34985 ft | 566 kts | 38° |
| 2026-05-06 00:04 | 35.90358 | -109.57204 | 35007 ft | 567 kts | 40° |
| 2026-05-06 00:05 | 36.00449 | -109.46046 | 35011 ft | 566 kts | 39° |
| 2026-05-06 00:06 | 36.07042 | -109.38786 | 35012 ft | 566 kts | 38° |
| 2026-05-06 00:06 | 36.13525 | -109.31654 | 34998 ft | 565 kts | 39° |
| 2026-05-06 00:07 | 36.19956 | -109.24569 | 34997 ft | 565 kts | 39° |
| 2026-05-06 00:07 | 36.26412 | -109.17474 | 35000 ft | 563 kts | 39° |
| 2026-05-06 00:08 | 36.32966 | -109.10261 | 35013 ft | 562 kts | 39° |
| 2026-05-06 00:08 | 36.39550 | -109.02988 | 34994 ft | 562 kts | 40° |
| 2026-05-06 00:09 | 36.46231 | -108.95402 | 34851 ft | 561 kts | 40° |
| 2026-05-06 00:09 | 36.52991 | -108.87762 | 34937 ft | 563 kts | 38° |
| 2026-05-06 00:10 | 36.59707 | -108.80192 | 34973 ft | 560 kts | 40° |
| 2026-05-06 00:10 | 36.66414 | -108.72646 | 35011 ft | 558 kts | 40° |
| 2026-05-06 00:11 | 36.73030 | -108.65189 | 34972 ft | 555 kts | 39° |
| 2026-05-06 00:11 | 36.79624 | -108.57774 | 34961 ft | 555 kts | 38° |
| 2026-05-06 00:12 | 36.86236 | -108.50329 | 34936 ft | 556 kts | 38° |
| 2026-05-06 00:12 | 36.92883 | -108.42871 | 34910 ft | 555 kts | 38° |
| 2026-05-06 00:13 | 36.99550 | -108.35367 | 34909 ft | 558 kts | 38° |
| 2026-05-06 00:13 | 37.06107 | -108.27769 | 34924 ft | 555 kts | 40° |
| 2026-05-06 00:14 | 37.12645 | -108.20196 | 34934 ft | 554 kts | 40° |
| 2026-05-06 00:14 | 37.19132 | -108.12705 | 34962 ft | 552 kts | 39° |
| 2026-05-06 00:15 | 37.25559 | -108.05315 | 34988 ft | 548 kts | 40° |
| 2026-05-06 00:15 | 37.31974 | -107.97914 | 34986 ft | 548 kts | 39° |
| 2026-05-06 00:16 | 37.38327 | -107.90601 | 34986 ft | 548 kts | 39° |
| 2026-05-06 00:16 | 37.44711 | -107.83250 | 35004 ft | 546 kts | 40° |
| 2026-05-06 00:17 | 37.51080 | -107.75935 | 35023 ft | 545 kts | 40° |
| 2026-05-06 00:17 | 37.57482 | -107.68578 | 34988 ft | 544 kts | 39° |
| 2026-05-06 00:18 | 37.63871 | -107.61156 | 35022 ft | 542 kts | 40° |
| 2026-05-06 00:18 | 37.70140 | -107.53797 | 35017 ft | 540 kts | 40° |
| 2026-05-06 00:19 | 37.76450 | -107.46439 | 35019 ft | 538 kts | 39° |
| 2026-05-06 00:19 | 37.82668 | -107.39074 | 35034 ft | 539 kts | 40° |
| 2026-05-06 00:20 | 37.88901 | -107.31650 | 35058 ft | 536 kts | 41° |
| 2026-05-06 00:20 | 37.95130 | -107.24265 | 35071 ft | 536 kts | 41° |
| 2026-05-06 00:21 | 38.01344 | -107.16893 | 35074 ft | 535 kts | 40° |
| 2026-05-06 00:21 | 38.07631 | -107.09442 | 35076 ft | 534 kts | 39° |
| 2026-05-06 00:22 | 38.13855 | -107.02072 | 35109 ft | 535 kts | 41° |
| 2026-05-06 00:22 | 38.19481 | -106.93986 | 35097 ft | 535 kts | 50° |
| 2026-05-06 00:23 | 38.24858 | -106.85466 | 35104 ft | 535 kts | 48° |
| 2026-05-06 00:23 | 38.30336 | -106.77068 | 35107 ft | 535 kts | 47° |
| 2026-05-06 00:24 | 38.35772 | -106.68710 | 35079 ft | 534 kts | 48° |
| 2026-05-06 00:24 | 38.41215 | -106.60371 | 35077 ft | 534 kts | 47° |
| 2026-05-06 00:25 | 38.46674 | -106.52009 | 35053 ft | 534 kts | 47° |
| 2026-05-06 00:25 | 38.52087 | -106.43733 | 34548 ft | 540 kts | 47° |
| 2026-05-06 00:25 | 38.54812 | -106.39578 | 33821 ft | 541 kts | 47° |
| 2026-05-06 00:26 | 38.56535 | -106.36940 | 33318 ft | 541 kts | 47° |
| 2026-05-06 00:26 | 38.57488 | -106.35480 | 33038 ft | 542 kts | 48° |
| 2026-05-06 00:26 | 38.60223 | -106.31299 | 32277 ft | 537 kts | 48° |
| 2026-05-06 00:26 | 38.62923 | -106.27194 | 32115 ft | 513 kts | 48° |
| 2026-05-06 00:27 | 38.65548 | -106.23191 | 32177 ft | 496 kts | 48° |
| 2026-05-06 00:27 | 38.68068 | -106.19335 | 31601 ft | 493 kts | 48° |
| 2026-05-06 00:27 | 38.70543 | -106.15535 | 31039 ft | 482 kts | 49° |
| 2026-05-06 00:27 | 38.72963 | -106.11815 | 30407 ft | 474 kts | 49° |
| 2026-05-06 00:28 | 38.75331 | -106.08176 | 29564 ft | 468 kts | 49° |
| 2026-05-06 00:28 | 38.77627 | -106.04653 | 28705 ft | 463 kts | 50° |
| 2026-05-06 00:28 | 38.79995 | -106.01016 | 27715 ft | 461 kts | 49° |
| 2026-05-06 00:28 | 38.82340 | -105.97411 | 26842 ft | 456 kts | 49° |
| 2026-05-06 00:29 | 38.84670 | -105.93855 | 26367 ft | 445 kts | 49° |
| 2026-05-06 00:29 | 38.86982 | -105.90321 | 26350 ft | 441 kts | 49° |
| 2026-05-06 00:29 | 38.89266 | -105.86816 | 26493 ft | 443 kts | 50° |
| 2026-05-06 00:29 | 38.91555 | -105.83238 | 25816 ft | 449 kts | 49° |
| 2026-05-06 00:30 | 38.93862 | -105.79615 | 25494 ft | 446 kts | 50° |
| 2026-05-06 00:30 | 38.95959 | -105.76344 | 25192 ft | 444 kts | 49° |
| 2026-05-06 00:30 | 38.97984 | -105.73194 | 24599 ft | 443 kts | 49° |
| 2026-05-06 00:30 | 38.99971 | -105.70110 | 23887 ft | 444 kts | 49° |
| 2026-05-06 00:31 | 39.01962 | -105.67001 | 23288 ft | 442 kts | 48° |
| 2026-05-06 00:31 | 39.03925 | -105.63969 | 22860 ft | 438 kts | 49° |
| 2026-05-06 00:31 | 39.05877 | -105.60930 | 22332 ft | 435 kts | 48° |
| 2026-05-06 00:31 | 39.07820 | -105.57887 | 21781 ft | 433 kts | 48° |
| 2026-05-06 00:32 | 39.09742 | -105.54878 | 21215 ft | 433 kts | 48° |
| 2026-05-06 00:32 | 39.11673 | -105.51863 | 20628 ft | 431 kts | 47° |
| 2026-05-06 00:32 | 39.13562 | -105.48934 | 20414 ft | 418 kts | 47° |
| 2026-05-06 00:32 | 39.15392 | -105.46067 | 20276 ft | 403 kts | 47° |
| 2026-05-06 00:33 | 39.17159 | -105.43282 | 19854 ft | 394 kts | 49° |
| 2026-05-06 00:33 | 39.18831 | -105.40595 | 19526 ft | 384 kts | 46° |
| 2026-05-06 00:33 | 39.20506 | -105.37914 | 19286 ft | 380 kts | 48° |
| 2026-05-06 00:33 | 39.22171 | -105.35274 | 19082 ft | 382 kts | 46° |
| 2026-05-06 00:34 | 39.23864 | -105.32591 | 18600 ft | 385 kts | 46° |
| 2026-05-06 00:34 | 39.25567 | -105.29906 | 18067 ft | 385 kts | 46° |
| 2026-05-06 00:34 | 39.27230 | -105.27243 | 17926 ft | 376 kts | 52° |
| 2026-05-06 00:34 | 39.28499 | -105.24287 | 17909 ft | 371 kts | 67° |
| 2026-05-06 00:35 | 39.29213 | -105.21053 | 17455 ft | 374 kts | 80° |
| 2026-05-06 00:35 | 39.29533 | -105.17699 | 16967 ft | 374 kts | 84° |
| 2026-05-06 00:35 | 39.29797 | -105.14364 | 16486 ft | 372 kts | 82° |
| 2026-05-06 00:35 | 39.30123 | -105.11062 | 15979 ft | 365 kts | 82° |
| 2026-05-06 00:36 | 39.30493 | -105.07872 | 15544 ft | 357 kts | 79° |
| 2026-05-06 00:36 | 39.30880 | -105.04745 | 15181 ft | 349 kts | 81° |
| 2026-05-06 00:36 | 39.31257 | -105.01677 | 14810 ft | 341 kts | 79° |
| 2026-05-06 00:36 | 39.31717 | -104.98648 | 14452 ft | 335 kts | 77° |
| 2026-05-06 00:37 | 39.32251 | -104.95739 | 14140 ft | 333 kts | 75° |
| 2026-05-06 00:37 | 39.32807 | -104.92856 | 13866 ft | 322 kts | 77° |
| 2026-05-06 00:37 | 39.33332 | -104.90121 | 13864 ft | 308 kts | 76° |
| 2026-05-06 00:37 | 39.33852 | -104.87492 | 13879 ft | 298 kts | 72° |
| 2026-05-06 00:38 | 39.34450 | -104.84935 | 13557 ft | 294 kts | 71° |
| 2026-05-06 00:38 | 39.35079 | -104.82492 | 13254 ft | 286 kts | 72° |
| 2026-05-06 00:38 | 39.35717 | -104.80080 | 13054 ft | 275 kts | 73° |
| 2026-05-06 00:38 | 39.36313 | -104.77776 | 12990 ft | 267 kts | 72° |
| 2026-05-06 00:39 | 39.36904 | -104.75474 | 12521 ft | 275 kts | 71° |
| 2026-05-06 00:39 | 39.37683 | -104.73199 | 12039 ft | 270 kts | 54° |
| 2026-05-06 00:39 | 39.38947 | -104.71474 | 11816 ft | 260 kts | 33° |
| 2026-05-06 00:39 | 39.40482 | -104.70301 | 11527 ft | 256 kts | 24° |
| 2026-05-06 00:40 | 39.42155 | -104.69442 | 11211 ft | 254 kts | 13° |
| 2026-05-06 00:40 | 39.43954 | -104.69064 | 10847 ft | 247 kts | 2° |
| 2026-05-06 00:40 | 39.45760 | -104.69035 | 10488 ft | 236 kts | 359° |
| 2026-05-06 00:40 | 39.47465 | -104.69104 | 10284 ft | 230 kts | 0° |
| 2026-05-06 00:41 | 39.49084 | -104.69167 | 10026 ft | 231 kts | 2° |
| 2026-05-06 00:41 | 39.50776 | -104.69155 | 10042 ft | 235 kts | 1° |
| 2026-05-06 00:41 | 39.52445 | -104.69141 | 9933 ft | 234 kts | 1° |
| 2026-05-06 00:41 | 39.54140 | -104.69136 | 9964 ft | 234 kts | 2° |
| 2026-05-06 00:42 | 39.55794 | -104.69105 | 9967 ft | 234 kts | 2° |
| 2026-05-06 00:42 | 39.57531 | -104.69070 | 9957 ft | 234 kts | 2° |
| 2026-05-06 00:42 | 39.59259 | -104.69040 | 9915 ft | 234 kts | 2° |
| 2026-05-06 00:42 | 39.60953 | -104.69019 | 9554 ft | 232 kts | 2° |
| 2026-05-06 00:43 | 39.62648 | -104.68998 | 9236 ft | 226 kts | 1° |
| 2026-05-06 00:43 | 39.64277 | -104.68975 | 9006 ft | 206 kts | 2° |
| 2026-05-06 00:43 | 39.65850 | -104.68970 | 9042 ft | 192 kts | 0° |
| 2026-05-06 00:43 | 39.67342 | -104.68975 | 9085 ft | 197 kts | 3° |
| 2026-05-06 00:44 | 39.68849 | -104.68930 | 8677 ft | 195 kts | 0° |
| 2026-05-06 00:44 | 39.70292 | -104.68919 | 8438 ft | 186 kts | 1° |
| 2026-05-06 00:44 | 39.71715 | -104.68903 | 8183 ft | 188 kts | 3° |
| 2026-05-06 00:44 | 39.73068 | -104.68858 | 7892 ft | 186 kts | 0° |
| 2026-05-06 00:45 | 39.74422 | -104.68878 | 7690 ft | 184 kts | 1° |
| 2026-05-06 00:45 | 39.75760 | -104.68838 | 7385 ft | 178 kts | 359° |
| 2026-05-06 00:45 | 39.77029 | -104.68831 | 7183 ft | 177 kts | 2° |
| 2026-05-06 00:45 | 39.78347 | -104.68800 | 6894 ft | 176 kts | 360° |
| 2026-05-06 00:46 | 39.79669 | -104.68803 | 6654 ft | 176 kts | 0° |
| 2026-05-06 00:46 | 39.80915 | -104.68790 | 6404 ft | 173 kts | 0° |
| 2026-05-06 00:46 | 39.82130 | -104.68767 | 6181 ft | 173 kts | 1° |
| 2026-05-06 00:46 | 39.83250 | -104.68745 | 5961 ft | 172 kts | 1° |
| 2026-05-06 00:47 | 39.84412 | -104.68726 | 5742 ft | 171 kts | 1° |
| 2026-05-06 00:47 | 39.85648 | -104.68711 | 5501 ft | 172 kts | 1° |
| 2026-05-06 00:47 | 39.86906 | -104.68702 | 5340 ft | 153 kts | 0° |
| 2026-05-06 00:47 | 39.87773 | -104.68703 | 5332 ft | 66 kts | 0° |
| 2026-05-06 00:48 | 39.88134 | -104.68700 | 5341 ft | 38 kts | 0° |
| 2026-05-06 00:48 | 39.88400 | -104.68689 | 5360 ft | 31 kts | 13° |
| 2026-05-06 00:48 | 39.88570 | -104.68591 | 5373 ft | 15 kts | 28° |
| 2026-05-06 00:48 | 39.88594 | -104.68509 | 5377 ft | 9 kts | 126° |
| 2026-05-06 00:49 | 39.88523 | -104.68484 | 5376 ft | 11 kts | 176° |
| 2026-05-06 00:49 | 39.88415 | -104.68483 | 5370 ft | 17 kts | 180° |
| 2026-05-06 00:49 | 39.88260 | -104.68484 | 5360 ft | 22 kts | 180° |
| 2026-05-06 00:49 | 39.88122 | -104.68486 | 5352 ft | 15 kts | 180° |
| 2026-05-06 00:50 | 39.87977 | -104.68489 | 5344 ft | 21 kts | 181° |
| 2026-05-06 00:50 | 39.87803 | -104.68492 | 5341 ft | 23 kts | 180° |
| 2026-05-06 00:50 | 39.87632 | -104.68492 | 5346 ft | 22 kts | 180° |
| 2026-05-06 00:50 | 39.87476 | -104.68494 | 5352 ft | 20 kts | 181° |
| 2026-05-06 00:51 | 39.87334 | -104.68497 | 5357 ft | 18 kts | 179° |
| 2026-05-06 00:51 | 39.87208 | -104.68497 | 5360 ft | 17 kts | 180° |
| 2026-05-06 00:51 | 39.87076 | -104.68499 | 5357 ft | 21 kts | 180° |
| 2026-05-06 00:51 | 39.86899 | -104.68503 | 5349 ft | 30 kts | 180° |
| 2026-05-06 00:52 | 39.86677 | -104.68503 | 5334 ft | 29 kts | 179° |
| 2026-05-06 00:52 | 39.86519 | -104.68504 | 5328 ft | 22 kts | 181° |
| 2026-05-06 00:52 | 39.86393 | -104.68507 | 5325 ft | 23 kts | 181° |
| 2026-05-06 00:52 | 39.86232 | -104.68513 | 5323 ft | 29 kts | 179° |
| 2026-05-06 00:53 | 39.86148 | -104.68477 | 5326 ft | 5 kts | 101° |
| 2026-05-06 00:53 | 39.86150 | -104.68443 | 5328 ft | 1 kts | 72° |
| 2026-05-06 00:53 | 39.86151 | -104.68439 | 5328 ft | 1 kts | 72° |
| 2026-05-06 00:53 | 39.86183 | -104.68403 | 5330 ft | 9 kts | 21° |
| 2026-05-06 00:54 | 39.86260 | -104.68391 | 5329 ft | 11 kts | 1° |
| 2026-05-06 00:54 | 39.86349 | -104.68385 | 5329 ft | 13 kts | 11° |
| 2026-05-06 00:54 | 39.86391 | -104.68340 | 5331 ft | 6 kts | 66° |
| 2026-05-06 00:54 | 39.86403 | -104.68298 | 5334 ft | 4 kts | 76° |
| 2026-05-06 00:55 | 39.86403 | -104.68235 | 5338 ft | 9 kts | 109° |
| 2026-05-06 00:55 | 39.86392 | -104.68121 | 5343 ft | 16 kts | 73° |
| 2026-05-06 00:55 | 39.86429 | -104.67986 | 5351 ft | 14 kts | 59° |
| 2026-05-06 00:55 | 39.86466 | -104.67881 | 5357 ft | 11 kts | 75° |
| 2026-05-06 00:56 | 39.86474 | -104.67787 | 5363 ft | 10 kts | 89° |
| 2026-05-06 00:56 | 39.86472 | -104.67705 | 5368 ft | 9 kts | 91° |
| 2026-05-06 00:56 | 39.86473 | -104.67596 | 5375 ft | 18 kts | 89° |
| 2026-05-06 00:56 | 39.86476 | -104.67365 | 5389 ft | 33 kts | 87° |
| 2026-05-06 00:57 | 39.86473 | -104.67052 | 5400 ft | 35 kts | 91° |
| 2026-05-06 00:57 | 39.86469 | -104.66742 | 5407 ft | 30 kts | 91° |
| 2026-05-06 00:57 | 39.86496 | -104.66499 | 5413 ft | 25 kts | 81° |
| 2026-05-06 00:57 | 39.86501 | -104.66312 | 5413 ft | 12 kts | 91° |
| 2026-05-06 00:58 | 39.86454 | -104.66234 | 5415 ft | 10 kts | 165° |
| 2026-05-06 00:58 | 39.86388 | -104.66227 | 5418 ft | 1 kts | 178° |
| 2026-05-06 00:59 | 39.86369 | -104.66227 | 5418 ft | 9 kts | 179° |
| 2026-05-06 00:59 | 39.86253 | -104.66228 | 5421 ft | 19 kts | 180° |
| 2026-05-06 01:00 | 39.86120 | -104.66231 | 5425 ft | 19 kts | 181° |
| 2026-05-06 01:00 | 39.85992 | -104.66233 | 5428 ft | 18 kts | 180° |
| 2026-05-06 01:00 | 39.85865 | -104.66234 | 5430 ft | 19 kts | 180° |
| 2026-05-06 01:00 | 39.85733 | -104.66235 | 5431 ft | 20 kts | 180° |
| 2026-05-06 01:01 | 39.85590 | -104.66238 | 5430 ft | 23 kts | 180° |
| 2026-05-06 01:01 | 39.85419 | -104.66239 | 5423 ft | 28 kts | 180° |
| 2026-05-06 01:01 | 39.85223 | -104.66241 | 5419 ft | 32 kts | 180° |
| 2026-05-06 01:01 | 39.84996 | -104.66244 | 5408 ft | 37 kts | 180° |
| 2026-05-06 01:02 | 39.84722 | -104.66248 | 5401 ft | 40 kts | 180° |
| 2026-05-06 01:02 | 39.84427 | -104.66251 | 5396 ft | 33 kts | 180° |
| 2026-05-06 01:02 | 39.84198 | -104.66254 | 5400 ft | 32 kts | 180° |
| 2026-05-06 01:02 | 39.83975 | -104.66257 | 5406 ft | 30 kts | 180° |
| 2026-05-06 01:03 | 39.83758 | -104.66259 | 5407 ft | 31 kts | 180° |
| 2026-05-06 01:03 | 39.83535 | -104.66262 | 5407 ft | 31 kts | 180° |
| 2026-05-06 01:03 | 39.83317 | -104.66264 | 5412 ft | 30 kts | 180° |
| 2026-05-06 01:03 | 39.83104 | -104.66267 | 5415 ft | 29 kts | 180° |
| 2026-05-06 01:04 | 39.82977 | -104.66272 | 5418 ft | 13 kts | 198° |
| 2026-05-06 01:04 | 39.82936 | -104.66375 | 5417 ft | 14 kts | 266° |
| 2026-05-06 01:04 | 39.82935 | -104.66521 | 5413 ft | 18 kts | 270° |
| 2026-05-06 01:04 | 39.82938 | -104.66707 | 5404 ft | 23 kts | 271° |
| 2026-05-06 01:05 | 39.82937 | -104.66934 | 5397 ft | 27 kts | 270° |
| 2026-05-06 01:05 | 39.82951 | -104.67153 | 5395 ft | 25 kts | 294° |
| 2026-05-06 01:05 | 39.83009 | -104.67328 | 5392 ft | 22 kts | 275° |
| 2026-05-06 01:05 | 39.83012 | -104.67464 | 5390 ft | 7 kts | 270° |
| 2026-05-06 01:06 | 39.83012 | -104.67515 | 5389 ft | 5 kts | 270° |
| 2026-05-06 01:06 | 39.83036 | -104.67553 | 5387 ft | 8 kts | 342° |
| 2026-05-06 01:06 | 39.83091 | -104.67554 | 5385 ft | 6 kts | 2° |
| 2026-05-06 01:06 | 39.83097 | -104.67554 | 5385 ft | 0 kts | 2° |